createdAt,value
2017-10-16T00:00:09.683Z,0
2017-10-16T00:01:20.236Z,0
2017-10-16T00:02:30.200Z,0
2017-10-16T00:03:40.487Z,0
2017-10-16T00:04:50.465Z,0
2017-10-16T00:06:00.780Z,0
2017-10-16T00:07:11.341Z,0
2017-10-16T00:08:21.646Z,0
2017-10-16T00:09:31.948Z,0
2017-10-16T00:10:41.928Z,0
2017-10-16T00:11:52.219Z,0
2017-10-16T00:13:02.432Z,0
2017-10-16T00:14:12.736Z,0
2017-10-16T00:15:22.714Z,0
2017-10-16T00:16:33.025Z,0
2017-10-16T00:17:42.991Z,0
2017-10-16T00:18:53.558Z,0
2017-10-16T00:20:03.850Z,0
2017-10-16T00:21:14.143Z,0
2017-10-16T00:22:24.433Z,0
2017-10-16T00:23:34.721Z,0
2017-10-16T00:24:45.268Z,0
2017-10-16T00:25:55.569Z,0
2017-10-16T00:27:05.884Z,0
2017-10-16T00:28:15.845Z,0
2017-10-16T00:29:26.146Z,0
2017-10-16T00:30:36.692Z,0
2017-10-16T00:31:46.990Z,0
2017-10-16T00:32:56.961Z,0
2017-10-16T00:34:06.928Z,0
2017-10-16T00:35:17.227Z,0
2017-10-16T00:36:27.780Z,0
2017-10-16T00:37:38.082Z,0
2017-10-16T00:38:48.374Z,0
2017-10-16T00:39:58.018Z,0
2017-10-16T00:41:08.306Z,0
2017-10-16T00:42:18.520Z,0
2017-10-16T00:43:28.818Z,0
2017-10-16T00:44:39.117Z,0
2017-10-16T00:45:49.416Z,0
2017-10-16T00:46:59.389Z,0
2017-10-16T00:48:09.933Z,0
2017-10-16T00:49:20.228Z,0
2017-10-16T00:50:30.352Z,0
2017-10-16T00:51:40.663Z,0
2017-10-16T00:52:50.631Z,0
2017-10-16T00:54:01.169Z,0
2017-10-16T00:55:11.132Z,0
2017-10-16T00:56:21.124Z,0
2017-10-16T00:57:31.426Z,0
2017-10-16T00:58:41.724Z,0
2017-10-16T00:59:52.272Z,0
2017-10-16T01:01:02.234Z,0
2017-10-16T01:02:12.203Z,0
2017-10-16T01:03:22.500Z,0
2017-10-16T01:04:32.831Z,0
2017-10-16T01:05:43.383Z,0
2017-10-16T01:06:53.351Z,0
2017-10-16T01:08:03.346Z,0
2017-10-16T01:09:13.318Z,0
2017-10-16T01:10:23.621Z,0
2017-10-16T01:11:34.167Z,0
2017-10-16T01:12:44.474Z,0
2017-10-16T01:13:54.767Z,0
2017-10-16T01:15:05.072Z,0
2017-10-16T01:16:15.039Z,0
2017-10-16T01:17:25.585Z,0
2017-10-16T01:18:35.872Z,0
2017-10-16T01:19:46.158Z,0
2017-10-16T01:20:55.813Z,0
2017-10-16T01:22:06.114Z,0
2017-10-16T01:23:16.659Z,0
2017-10-16T01:24:26.967Z,0
2017-10-16T01:25:37.273Z,0
2017-10-16T01:26:47.568Z,0
2017-10-16T01:27:57.861Z,0
2017-10-16T01:29:08.400Z,0
2017-10-16T01:30:18.690Z,0
2017-10-16T01:31:28.986Z,0
2017-10-16T01:32:38.947Z,0
2017-10-16T01:33:49.256Z,0
2017-10-16T01:34:59.485Z,0
2017-10-16T01:36:09.775Z,0
2017-10-16T01:37:19.421Z,0
2017-10-16T01:38:29.717Z,0
2017-10-16T01:39:39.682Z,0
2017-10-16T01:40:50.075Z,0
2017-10-16T01:42:00.050Z,0
2017-10-16T01:43:10.025Z,0
2017-10-16T01:44:20.325Z,0
2017-10-16T01:45:30.303Z,0
2017-10-16T01:46:40.833Z,0
2017-10-16T01:47:51.136Z,0
2017-10-16T01:49:01.421Z,0
2017-10-16T01:50:11.735Z,0
2017-10-16T01:51:22.022Z,0
2017-10-16T01:52:32.567Z,0
2017-10-16T01:53:42.532Z,0
2017-10-16T01:54:52.829Z,0
2017-10-16T01:56:03.129Z,0
2017-10-16T01:57:13.424Z,0
2017-10-16T01:58:23.958Z,0
2017-10-16T01:59:34.259Z,0
2017-10-16T02:00:44.560Z,0
2017-10-16T02:01:54.526Z,0
2017-10-16T02:03:04.822Z,0
2017-10-16T02:04:15.367Z,0
2017-10-16T02:05:25.658Z,0
2017-10-16T02:06:35.945Z,0
2017-10-16T02:07:46.245Z,0
2017-10-16T02:08:55.572Z,0
2017-10-16T02:10:05.792Z,0
2017-10-16T02:11:15.760Z,0
2017-10-16T02:12:26.070Z,0
2017-10-16T02:13:36.369Z,0
2017-10-16T02:14:46.659Z,0
2017-10-16T02:15:56.895Z,0
2017-10-16T02:17:07.191Z,0
2017-10-16T02:18:17.490Z,0
2017-10-16T02:19:27.788Z,0
2017-10-16T02:20:37.745Z,0
2017-10-16T02:21:48.307Z,0
2017-10-16T02:22:58.281Z,0
2017-10-16T02:24:08.245Z,0
2017-10-16T02:25:18.537Z,0
2017-10-16T02:26:28.835Z,0
2017-10-16T02:27:39.381Z,0
2017-10-16T02:28:49.679Z,0
2017-10-16T02:29:59.970Z,0
2017-10-16T02:31:09.946Z,0
2017-10-16T02:32:20.242Z,0
2017-10-16T02:33:30.853Z,0
2017-10-16T02:34:40.833Z,0
2017-10-16T02:35:51.136Z,0
2017-10-16T02:37:01.423Z,0
2017-10-16T02:38:11.725Z,0
2017-10-16T02:39:22.280Z,0
2017-10-16T02:40:32.575Z,0
2017-10-16T02:41:42.885Z,0
2017-10-16T02:42:53.186Z,0
2017-10-16T02:44:03.476Z,0
2017-10-16T02:45:14.032Z,0
2017-10-16T02:46:24.329Z,0
2017-10-16T02:47:34.622Z,0
2017-10-16T02:48:44.590Z,0
2017-10-16T02:49:54.893Z,0
2017-10-16T02:51:05.500Z,0
2017-10-16T02:52:15.789Z,0
2017-10-16T02:53:26.099Z,0
2017-10-16T02:54:36.416Z,0
2017-10-16T02:55:46.720Z,0
2017-10-16T02:56:57.277Z,0
2017-10-16T02:58:07.581Z,0
2017-10-16T02:59:17.894Z,0
2017-10-16T03:00:27.849Z,0
2017-10-16T03:01:38.151Z,0
2017-10-16T03:02:48.374Z,0
2017-10-16T03:03:58.661Z,0
2017-10-16T03:05:08.949Z,0
2017-10-16T03:06:18.906Z,0
2017-10-16T03:07:28.875Z,0
2017-10-16T03:08:39.094Z,0
2017-10-16T03:09:48.422Z,0
2017-10-16T03:10:58.708Z,0
2017-10-16T03:12:09.031Z,0
2017-10-16T03:13:19.333Z,0
2017-10-16T03:14:29.888Z,0
2017-10-16T03:15:40.189Z,0
2017-10-16T03:16:50.161Z,0
2017-10-16T03:18:00.481Z,0
2017-10-16T03:19:10.780Z,0
2017-10-16T03:20:21.328Z,0
2017-10-16T03:21:30.968Z,0
2017-10-16T03:22:41.258Z,0
2017-10-16T03:23:51.545Z,0
2017-10-16T03:25:01.504Z,0
2017-10-16T03:26:12.048Z,0
2017-10-16T03:27:22.347Z,0
2017-10-16T03:28:32.304Z,0
2017-10-16T03:29:42.266Z,0
2017-10-16T03:30:52.239Z,0
2017-10-16T03:32:02.786Z,0
2017-10-16T03:33:12.813Z,0
2017-10-16T03:34:22.772Z,0
2017-10-16T03:35:33.062Z,0
2017-10-16T03:36:42.705Z,0
2017-10-16T03:37:52.918Z,0
2017-10-16T03:39:02.891Z,0
2017-10-16T03:40:13.179Z,0
2017-10-16T03:41:23.143Z,0
2017-10-16T03:42:33.114Z,0
2017-10-16T03:43:43.661Z,0
2017-10-16T03:44:53.628Z,0
2017-10-16T03:46:03.591Z,0
2017-10-16T03:47:13.894Z,0
2017-10-16T03:48:24.184Z,0
2017-10-16T03:49:34.730Z,0
2017-10-16T03:50:45.023Z,0
2017-10-16T03:51:55.311Z,0
2017-10-16T03:53:05.279Z,0
2017-10-16T03:54:15.564Z,0
2017-10-16T03:55:26.116Z,0
2017-10-16T03:56:35.435Z,0
2017-10-16T03:57:45.393Z,0
2017-10-16T03:58:55.700Z,0
2017-10-16T04:00:05.339Z,0
2017-10-16T04:01:15.878Z,0
2017-10-16T04:02:26.192Z,0
2017-10-16T04:03:36.489Z,0
2017-10-16T04:04:46.460Z,0
2017-10-16T04:05:56.754Z,0
2017-10-16T04:07:07.304Z,0
2017-10-16T04:08:17.599Z,0
2017-10-16T04:09:27.889Z,0
2017-10-16T04:10:37.863Z,0
2017-10-16T04:11:48.153Z,0
2017-10-16T04:12:58.713Z,0
2017-10-16T04:14:08.678Z,0
2017-10-16T04:15:18.654Z,0
2017-10-16T04:16:28.944Z,0
2017-10-16T04:17:38.927Z,0
2017-10-16T04:18:49.474Z,0
2017-10-16T04:19:59.787Z,0
2017-10-16T04:21:10.078Z,0
2017-10-16T04:22:20.368Z,0
2017-10-16T04:23:30.660Z,0
2017-10-16T04:24:40.884Z,0
2017-10-16T04:25:50.854Z,0
2017-10-16T04:27:01.150Z,0
2017-10-16T04:28:11.459Z,0
2017-10-16T04:29:21.743Z,0
2017-10-16T04:30:31.967Z,0
2017-10-16T04:31:42.262Z,0
2017-10-16T04:32:52.558Z,0
2017-10-16T04:34:02.196Z,0
2017-10-16T04:35:12.513Z,0
2017-10-16T04:36:23.052Z,0
2017-10-16T04:37:33.341Z,0
2017-10-16T04:38:43.640Z,0
2017-10-16T04:39:53.947Z,0
2017-10-16T04:41:03.914Z,0
2017-10-16T04:42:14.455Z,0
2017-10-16T04:43:24.424Z,0
2017-10-16T04:44:34.734Z,0
2017-10-16T04:45:44.707Z,0
2017-10-16T04:46:55.009Z,0
2017-10-16T04:48:05.581Z,0
2017-10-16T04:49:15.548Z,0
2017-10-16T04:50:25.518Z,0
2017-10-16T04:51:35.810Z,0
2017-10-16T04:52:46.109Z,0
2017-10-16T04:53:56.694Z,0
2017-10-16T04:55:06.989Z,0
2017-10-16T04:56:17.297Z,0
2017-10-16T04:57:27.589Z,0
2017-10-16T04:58:37.892Z,0
2017-10-16T04:59:48.467Z,0
2017-10-16T05:00:58.767Z,0
2017-10-16T05:02:08.405Z,0
2017-10-16T05:03:18.424Z,0
2017-10-16T05:04:28.713Z,0
2017-10-16T05:05:38.986Z,0
2017-10-16T05:06:49.288Z,0
2017-10-16T05:07:59.582Z,0
2017-10-16T05:09:09.541Z,0
2017-10-16T05:10:19.855Z,0
2017-10-16T05:11:30.413Z,0
2017-10-16T05:12:40.708Z,0
2017-10-16T05:13:51.004Z,0
2017-10-16T05:15:01.334Z,0
2017-10-16T05:16:11.300Z,0
2017-10-16T05:17:21.514Z,0
2017-10-16T05:18:31.498Z,0
2017-10-16T05:19:41.790Z,0
2017-10-16T05:20:52.090Z,0
2017-10-16T05:22:02.382Z,0
2017-10-16T05:23:11.960Z,5
2017-10-16T05:24:22.250Z,5
2017-10-16T05:25:32.207Z,5
2017-10-16T05:26:42.498Z,5
2017-10-16T05:27:52.149Z,5
2017-10-16T05:29:02.760Z,10
2017-10-16T05:30:13.055Z,10
2017-10-16T05:31:23.359Z,10
2017-10-16T05:32:33.659Z,15
2017-10-16T05:33:43.624Z,15
2017-10-16T05:34:54.186Z,15
2017-10-16T05:36:04.180Z,20
2017-10-16T05:37:14.160Z,20
2017-10-16T05:38:24.468Z,25
2017-10-16T05:39:34.761Z,25
2017-10-16T05:40:45.301Z,30
2017-10-16T05:41:55.281Z,30
2017-10-16T05:43:05.278Z,30
2017-10-16T05:44:15.588Z,35
2017-10-16T05:45:25.885Z,40
2017-10-16T05:46:36.454Z,40
2017-10-16T05:47:46.755Z,45
2017-10-16T05:48:57.073Z,45
2017-10-16T05:50:06.722Z,50
2017-10-16T05:51:17.079Z,50
2017-10-16T05:52:27.317Z,55
2017-10-16T05:53:37.616Z,55
2017-10-16T05:54:47.608Z,60
2017-10-16T05:55:57.896Z,65
2017-10-16T05:57:07.882Z,65
2017-10-16T05:58:18.530Z,70
2017-10-16T05:59:28.825Z,70
2017-10-16T06:00:38.479Z,75
2017-10-16T06:01:48.447Z,80
2017-10-16T06:02:58.460Z,80
2017-10-16T06:04:08.690Z,85
2017-10-16T06:05:18.686Z,85
2017-10-16T06:06:29.021Z,90
2017-10-16T06:07:38.666Z,90
2017-10-16T06:08:48.960Z,95
2017-10-16T06:09:59.510Z,100
2017-10-16T06:11:09.815Z,100
2017-10-16T06:12:20.119Z,105
2017-10-16T06:13:30.411Z,105
2017-10-16T06:14:40.395Z,110
2017-10-16T06:15:50.288Z,110
2017-10-16T06:17:00.261Z,115
2017-10-16T06:18:10.565Z,120
2017-10-16T06:19:20.872Z,120
2017-10-16T06:20:30.846Z,125
2017-10-16T06:21:41.449Z,125
2017-10-16T06:22:51.749Z,130
2017-10-16T06:24:02.271Z,130
2017-10-16T06:25:12.595Z,135
2017-10-16T06:26:22.928Z,135
2017-10-16T06:27:33.537Z,140
2017-10-16T06:28:43.884Z,145
2017-10-16T06:29:54.204Z,145
2017-10-16T06:31:04.514Z,150
2017-10-16T06:32:14.836Z,150
2017-10-16T06:33:25.650Z,155
2017-10-16T06:34:35.949Z,155
2017-10-16T06:35:46.262Z,160
2017-10-16T06:36:56.259Z,160
2017-10-16T06:38:06.552Z,165
2017-10-16T06:39:17.143Z,165
2017-10-16T06:40:27.471Z,170
2017-10-16T06:41:37.467Z,170
2017-10-16T06:42:46.798Z,175
2017-10-16T06:43:56.139Z,175
2017-10-16T06:45:06.393Z,175
2017-10-16T06:46:16.070Z,175
2017-10-16T06:47:26.405Z,180
2017-10-16T06:48:36.717Z,180
2017-10-16T06:49:47.015Z,185
2017-10-16T06:50:57.607Z,185
2017-10-16T06:52:07.924Z,190
2017-10-16T06:53:18.233Z,190
2017-10-16T06:54:28.532Z,190
2017-10-16T06:55:39.070Z,195
2017-10-16T06:56:49.619Z,195
2017-10-16T06:57:59.960Z,200
2017-10-16T06:59:10.299Z,200
2017-10-16T07:00:20.607Z,205
2017-10-16T07:01:30.919Z,205
2017-10-16T07:02:40.821Z,210
2017-10-16T07:03:50.798Z,210
2017-10-16T07:05:01.106Z,215
2017-10-16T07:06:11.405Z,220
2017-10-16T07:07:21.718Z,220
2017-10-16T07:08:32.259Z,220
2017-10-16T07:09:42.585Z,225
2017-10-16T07:10:52.903Z,225
2017-10-16T07:12:03.214Z,230
2017-10-16T07:13:13.199Z,230
2017-10-16T07:14:23.749Z,230
2017-10-16T07:15:34.071Z,235
2017-10-16T07:16:44.058Z,235
2017-10-16T07:17:54.371Z,240
2017-10-16T07:19:04.685Z,240
2017-10-16T07:20:14.929Z,245
2017-10-16T07:21:25.216Z,245
2017-10-16T07:22:35.202Z,245
2017-10-16T07:23:45.531Z,245
2017-10-16T07:24:55.844Z,250
2017-10-16T07:26:06.382Z,250
2017-10-16T07:27:16.671Z,255
2017-10-16T07:28:27.007Z,255
2017-10-16T07:29:37.322Z,255
2017-10-16T07:30:47.653Z,260
2017-10-16T07:31:58.208Z,260
2017-10-16T07:33:07.863Z,260
2017-10-16T07:34:17.837Z,265
2017-10-16T07:35:27.809Z,265
2017-10-16T07:36:37.787Z,265
2017-10-16T07:37:48.347Z,270
2017-10-16T07:38:58.663Z,270
2017-10-16T07:40:08.960Z,275
2017-10-16T07:41:19.261Z,275
2017-10-16T07:42:29.569Z,275
2017-10-16T07:43:40.181Z,280
2017-10-16T07:44:50.510Z,280
2017-10-16T07:46:00.490Z,285
2017-10-16T07:47:10.788Z,345
2017-10-16T07:48:21.207Z,420
2017-10-16T07:49:31.864Z,425
2017-10-16T07:50:42.191Z,435
2017-10-16T07:51:52.192Z,440
2017-10-16T07:53:02.513Z,460
2017-10-16T07:54:12.859Z,465
2017-10-16T07:55:23.553Z,480
2017-10-16T07:56:33.905Z,490
2017-10-16T07:57:44.248Z,495
2017-10-16T07:58:54.580Z,510
2017-10-16T08:00:04.909Z,530
2017-10-16T08:01:15.520Z,535
2017-10-16T08:02:25.839Z,555
2017-10-16T08:03:36.154Z,550
2017-10-16T08:04:46.520Z,580
2017-10-16T08:05:56.873Z,590
2017-10-16T08:07:06.856Z,615
2017-10-16T08:08:17.200Z,615
2017-10-16T08:09:27.554Z,645
2017-10-16T08:10:37.903Z,645
2017-10-16T08:11:47.888Z,650
2017-10-16T08:12:58.457Z,690
2017-10-16T08:14:08.773Z,680
2017-10-16T08:15:18.436Z,710
2017-10-16T08:16:28.423Z,710
2017-10-16T08:17:38.396Z,725
2017-10-16T08:18:48.639Z,750
2017-10-16T08:19:58.331Z,730
2017-10-16T08:21:07.969Z,800
2017-10-16T08:22:18.285Z,790
2017-10-16T08:23:28.587Z,775
2017-10-16T08:24:39.212Z,835
2017-10-16T08:25:49.191Z,825
2017-10-16T08:26:59.210Z,845
2017-10-16T08:28:09.522Z,810
2017-10-16T08:29:19.847Z,815
2017-10-16T08:30:30.086Z,835
2017-10-16T08:31:40.832Z,860
2017-10-16T08:32:50.945Z,945
2017-10-16T08:34:00.946Z,920
2017-10-16T08:35:11.277Z,965
2017-10-16T08:36:21.853Z,970
2017-10-16T08:37:32.161Z,985
2017-10-16T08:38:42.463Z,970
2017-10-16T08:39:52.785Z,965
2017-10-16T08:41:02.782Z,1005
2017-10-16T08:42:13.355Z,1045
2017-10-16T08:43:23.679Z,980
2017-10-16T08:44:33.999Z,1035
2017-10-16T08:45:44.338Z,1110
2017-10-16T08:46:54.385Z,1060
2017-10-16T08:48:04.979Z,1165
2017-10-16T08:49:15.017Z,1165
2017-10-16T08:50:24.716Z,1090
2017-10-16T08:51:34.727Z,1150
2017-10-16T08:52:45.072Z,1190
2017-10-16T08:53:55.638Z,1185
2017-10-16T08:55:05.637Z,1150
2017-10-16T08:56:15.980Z,1165
2017-10-16T08:57:26.299Z,1160
2017-10-16T08:58:36.640Z,1190
2017-10-16T08:59:47.203Z,1265
2017-10-16T09:00:57.518Z,1240
2017-10-16T09:02:07.571Z,1235
2017-10-16T09:03:17.899Z,1410
2017-10-16T09:04:27.876Z,1535
2017-10-16T09:05:38.425Z,1285
2017-10-16T09:06:48.399Z,1290
2017-10-16T09:07:58.718Z,1340
2017-10-16T09:09:09.026Z,1320
2017-10-16T09:10:19.337Z,1370
2017-10-16T09:11:29.898Z,1345
2017-10-16T09:12:39.987Z,1275
2017-10-16T09:13:50.295Z,1280
2017-10-16T09:15:00.284Z,1260
2017-10-16T09:16:10.602Z,1225
2017-10-16T09:17:21.160Z,1280
2017-10-16T09:18:31.470Z,1375
2017-10-16T09:19:41.771Z,1440
2017-10-16T09:20:52.092Z,1435
2017-10-16T09:22:02.396Z,1485
2017-10-16T09:23:12.948Z,1450
2017-10-16T09:24:23.253Z,1435
2017-10-16T09:25:33.569Z,1535
2017-10-16T09:26:43.876Z,1520
2017-10-16T09:27:54.202Z,1510
2017-10-16T09:29:04.762Z,1540
2017-10-16T09:30:15.070Z,1540
2017-10-16T09:31:25.057Z,1490
2017-10-16T09:32:35.034Z,1560
2017-10-16T09:33:45.033Z,1655
2017-10-16T09:34:55.617Z,1630
2017-10-16T09:36:05.926Z,1620
2017-10-16T09:37:16.221Z,1640
2017-10-16T09:38:25.911Z,1670
2017-10-16T09:39:36.301Z,1630
2017-10-16T09:40:46.948Z,1650
2017-10-16T09:41:56.948Z,1865
2017-10-16T09:43:07.263Z,1755
2017-10-16T09:44:17.254Z,1685
2017-10-16T09:45:27.599Z,1820
2017-10-16T09:46:38.170Z,1875
2017-10-16T09:47:48.509Z,1740
2017-10-16T09:48:58.187Z,1790
2017-10-16T09:50:08.531Z,1815
2017-10-16T09:51:18.850Z,1780
2017-10-16T09:52:29.448Z,1795
2017-10-16T09:53:39.779Z,1800
2017-10-16T09:54:49.763Z,1820
2017-10-16T09:56:00.072Z,1875
2017-10-16T09:57:09.724Z,1900
2017-10-16T09:58:19.951Z,1840
2017-10-16T09:59:30.289Z,1810
2017-10-16T10:00:40.600Z,1830
2017-10-16T10:01:50.921Z,1870
2017-10-16T10:03:00.949Z,1865
2017-10-16T10:04:11.633Z,1905
2017-10-16T10:05:21.968Z,1800
2017-10-16T10:06:32.283Z,1685
2017-10-16T10:07:41.954Z,1720
2017-10-16T10:08:52.289Z,1865
2017-10-16T10:10:02.880Z,1940
2017-10-16T10:11:13.239Z,1835
2017-10-16T10:12:23.234Z,1855
2017-10-16T10:13:33.558Z,1970
2017-10-16T10:14:43.547Z,2025
2017-10-16T10:15:53.465Z,1885
2017-10-16T10:17:03.796Z,2055
2017-10-16T10:18:14.147Z,2055
2017-10-16T10:19:24.467Z,1990
2017-10-16T10:20:34.487Z,2065
2017-10-16T10:21:44.737Z,2040
2017-10-16T10:22:55.053Z,2085
2017-10-16T10:24:05.398Z,2105
2017-10-16T10:25:15.379Z,2080
2017-10-16T10:26:25.391Z,2050
2017-10-16T10:27:35.972Z,2060
2017-10-16T10:28:45.637Z,2145
2017-10-16T10:29:55.964Z,2200
2017-10-16T10:31:05.940Z,2130
2017-10-16T10:32:15.921Z,2115
2017-10-16T10:33:26.152Z,2115
2017-10-16T10:34:36.488Z,2190
2017-10-16T10:35:46.805Z,2240
2017-10-16T10:36:57.362Z,2190
2017-10-16T10:38:07.715Z,2095
2017-10-16T10:39:18.062Z,2270
2017-10-16T10:40:28.385Z,2230
2017-10-16T10:41:38.714Z,2150
2017-10-16T10:42:49.312Z,2185
2017-10-16T10:43:59.300Z,2220
2017-10-16T10:45:09.620Z,2205
2017-10-16T10:46:19.940Z,2195
2017-10-16T10:47:29.947Z,2230
2017-10-16T10:48:40.258Z,2215
2017-10-16T10:49:50.242Z,2295
2017-10-16T10:51:00.232Z,2335
2017-10-16T10:52:10.553Z,2300
2017-10-16T10:53:20.893Z,2310
2017-10-16T10:54:31.220Z,2240
2017-10-16T10:55:41.557Z,2225
2017-10-16T10:56:51.549Z,2240
2017-10-16T10:58:01.561Z,2260
2017-10-16T10:59:11.216Z,2295
2017-10-16T11:00:21.524Z,2290
2017-10-16T11:01:31.839Z,2250
2017-10-16T11:02:41.821Z,2270
2017-10-16T11:03:52.130Z,2260
2017-10-16T11:05:02.465Z,2320
2017-10-16T11:06:12.560Z,2365
2017-10-16T11:07:23.375Z,2295
2017-10-16T11:08:33.741Z,2230
2017-10-16T11:09:44.056Z,2280
2017-10-16T11:10:54.080Z,2425
2017-10-16T11:12:04.397Z,2355
2017-10-16T11:13:14.925Z,2235
2017-10-16T11:14:24.261Z,2210
2017-10-16T11:15:34.608Z,2255
2017-10-16T11:16:45.152Z,2290
2017-10-16T11:17:55.127Z,2290
2017-10-16T11:19:04.799Z,2280
2017-10-16T11:20:14.853Z,2260
2017-10-16T11:21:25.173Z,2245
2017-10-16T11:22:35.534Z,2280
2017-10-16T11:23:45.853Z,2330
2017-10-16T11:24:56.168Z,2410
2017-10-16T11:26:06.483Z,2475
2017-10-16T11:27:16.491Z,2430
2017-10-16T11:28:26.813Z,2355
2017-10-16T11:29:37.159Z,2315
2017-10-16T11:30:47.150Z,2325
2017-10-16T11:31:57.505Z,2285
2017-10-16T11:33:07.863Z,2320
2017-10-16T11:34:17.846Z,2420
2017-10-16T11:35:27.507Z,2465
2017-10-16T11:36:37.810Z,2515
2017-10-16T11:37:48.139Z,2485
2017-10-16T11:38:58.131Z,2440
2017-10-16T11:40:08.479Z,2410
2017-10-16T11:41:18.805Z,2445
2017-10-16T11:42:28.808Z,2490
2017-10-16T11:43:39.138Z,2500
2017-10-16T11:44:49.471Z,2470
2017-10-16T11:45:59.780Z,2490
2017-10-16T11:47:09.809Z,2550
2017-10-16T11:48:19.490Z,2560
2017-10-16T11:49:29.856Z,2545
2017-10-16T11:50:40.189Z,2500
2017-10-16T11:51:50.234Z,2470
2017-10-16T11:53:00.230Z,2480
2017-10-16T11:54:10.561Z,2515
2017-10-16T11:55:20.903Z,2455
2017-10-16T11:56:30.884Z,2425
2017-10-16T11:57:40.878Z,2465
2017-10-16T11:58:50.899Z,2520
2017-10-16T12:00:01.096Z,2510
2017-10-16T12:01:11.429Z,2490
2017-10-16T12:02:21.790Z,2475
2017-10-16T12:03:32.131Z,2435
2017-10-16T12:04:42.448Z,2455
2017-10-16T12:05:52.445Z,2485
2017-10-16T12:07:02.841Z,2480
2017-10-16T12:08:13.172Z,2445
2017-10-16T12:09:23.176Z,2455
2017-10-16T12:10:33.530Z,2500
2017-10-16T12:11:43.563Z,2480
2017-10-16T12:12:53.589Z,2470
2017-10-16T12:14:03.908Z,2465
2017-10-16T12:15:14.222Z,2505
2017-10-16T12:16:24.543Z,2470
2017-10-16T12:17:34.855Z,2410
2017-10-16T12:18:44.925Z,2370
2017-10-16T12:19:54.947Z,2385
2017-10-16T12:21:04.626Z,2335
2017-10-16T12:22:14.607Z,2255
2017-10-16T12:23:24.926Z,2270
2017-10-16T12:24:35.264Z,2425
2017-10-16T12:25:45.964Z,2495
2017-10-16T12:26:56.321Z,2575
2017-10-16T12:28:06.623Z,2630
2017-10-16T12:29:16.936Z,2570
2017-10-16T12:30:27.273Z,2550
2017-10-16T12:31:37.615Z,2520
2017-10-16T12:32:47.929Z,2435
2017-10-16T12:33:57.934Z,2380
2017-10-16T12:35:08.253Z,2360
2017-10-16T12:36:18.246Z,2385
2017-10-16T12:37:28.576Z,1850
2017-10-16T12:38:38.896Z,1980
2017-10-16T12:39:49.215Z,2490
2017-10-16T12:40:59.196Z,2505
2017-10-16T12:42:09.506Z,2435
2017-10-16T12:43:19.512Z,2400
2017-10-16T12:44:29.842Z,2410
2017-10-16T12:45:40.165Z,2345
2017-10-16T12:46:50.473Z,2360
2017-10-16T12:48:00.778Z,2370
2017-10-16T12:49:10.676Z,2380
2017-10-16T12:50:20.664Z,2355
2017-10-16T12:51:30.986Z,2305
2017-10-16T12:52:41.305Z,2300
2017-10-16T12:53:51.622Z,2305
2017-10-16T12:55:01.943Z,2300
2017-10-16T12:56:12.251Z,2300
2017-10-16T12:57:22.258Z,2250
2017-10-16T12:58:32.575Z,2210
2017-10-16T12:59:42.900Z,2170
2017-10-16T13:00:53.208Z,2130
2017-10-16T13:02:03.530Z,2105
2017-10-16T13:03:13.857Z,2140
2017-10-16T13:04:23.516Z,2155
2017-10-16T13:05:33.178Z,2185
2017-10-16T13:06:42.837Z,2165
2017-10-16T13:07:53.164Z,2125
2017-10-16T13:09:03.169Z,2070
2017-10-16T13:10:13.184Z,2035
2017-10-16T13:11:23.505Z,2050
2017-10-16T13:12:33.816Z,2015
2017-10-16T13:13:43.801Z,2000
2017-10-16T13:14:54.121Z,2010
2017-10-16T13:16:04.441Z,2055
2017-10-16T13:17:14.998Z,2075
2017-10-16T13:18:24.995Z,2065
2017-10-16T13:19:35.299Z,2030
2017-10-16T13:20:45.609Z,1960
2017-10-16T13:21:55.587Z,1940
2017-10-16T13:23:05.908Z,1955
2017-10-16T13:24:15.566Z,1870
2017-10-16T13:25:25.566Z,1820
2017-10-16T13:26:35.894Z,1780
2017-10-16T13:27:46.225Z,1775
2017-10-16T13:28:56.539Z,1805
2017-10-16T13:30:06.851Z,1775
2017-10-16T13:31:17.187Z,1770
2017-10-16T13:32:27.512Z,1800
2017-10-16T13:33:37.836Z,1780
2017-10-16T13:34:48.163Z,1765
2017-10-16T13:35:58.151Z,1740
2017-10-16T13:37:08.476Z,1720
2017-10-16T13:38:18.445Z,1700
2017-10-16T13:39:28.433Z,1705
2017-10-16T13:40:38.417Z,1690
2017-10-16T13:41:48.752Z,1650
2017-10-16T13:42:58.745Z,1610
2017-10-16T13:44:09.059Z,1610
2017-10-16T13:45:19.060Z,1620
2017-10-16T13:46:29.040Z,1445
2017-10-16T13:47:39.362Z,1035
2017-10-16T13:48:49.670Z,1335
2017-10-16T13:49:59.989Z,1520
2017-10-16T13:51:09.997Z,1555
2017-10-16T13:52:20.329Z,1540
2017-10-16T13:53:30.641Z,1550
2017-10-16T13:54:40.677Z,1530
2017-10-16T13:55:51.101Z,1520
2017-10-16T13:57:01.202Z,1475
2017-10-16T13:58:11.528Z,1430
2017-10-16T13:59:21.899Z,1400
2017-10-16T14:00:32.206Z,1425
2017-10-16T14:01:42.525Z,1450
2017-10-16T14:02:52.600Z,1420
2017-10-16T14:04:02.610Z,1365
2017-10-16T14:05:12.939Z,1325
2017-10-16T14:06:23.260Z,1285
2017-10-16T14:07:33.564Z,1260
2017-10-16T14:08:43.218Z,1250
2017-10-16T14:09:53.197Z,1240
2017-10-16T14:11:03.766Z,1235
2017-10-16T14:12:13.738Z,1230
2017-10-16T14:13:24.049Z,1205
2017-10-16T14:14:34.402Z,1180
2017-10-16T14:15:44.381Z,1185
2017-10-16T14:16:54.674Z,1175
2017-10-16T14:18:04.982Z,1150
2017-10-16T14:19:15.333Z,1120
2017-10-16T14:20:25.665Z,1100
2017-10-16T14:21:35.970Z,1045
2017-10-16T14:22:46.289Z,985
2017-10-16T14:23:56.610Z,875
2017-10-16T14:25:06.278Z,1005
2017-10-16T14:26:16.585Z,1005
2017-10-16T14:27:26.911Z,785
2017-10-16T14:28:37.263Z,615
2017-10-16T14:29:47.586Z,820
2017-10-16T14:30:57.905Z,835
2017-10-16T14:32:08.203Z,925
2017-10-16T14:33:18.532Z,920
2017-10-16T14:34:28.837Z,895
2017-10-16T14:35:39.161Z,875
2017-10-16T14:36:49.148Z,845
2017-10-16T14:37:59.159Z,820
2017-10-16T14:39:09.463Z,810
2017-10-16T14:40:19.787Z,810
2017-10-16T14:41:29.766Z,800
2017-10-16T14:42:40.092Z,775
2017-10-16T14:43:50.429Z,740
2017-10-16T14:45:00.421Z,735
2017-10-16T14:46:10.736Z,720
2017-10-16T14:47:21.073Z,705
2017-10-16T14:48:31.408Z,705
2017-10-16T14:49:40.733Z,695
2017-10-16T14:50:51.041Z,675
2017-10-16T14:52:01.337Z,655
2017-10-16T14:53:11.654Z,630
2017-10-16T14:54:21.965Z,620
2017-10-16T14:55:32.285Z,615
2017-10-16T14:56:42.593Z,595
2017-10-16T14:57:52.567Z,570
2017-10-16T14:59:02.868Z,555
2017-10-16T15:00:13.174Z,535
2017-10-16T15:01:23.476Z,510
2017-10-16T15:02:33.773Z,495
2017-10-16T15:03:44.103Z,490
2017-10-16T15:04:54.404Z,480
2017-10-16T15:06:04.375Z,470
2017-10-16T15:07:14.680Z,455
2017-10-16T15:08:24.679Z,440
2017-10-16T15:09:35.003Z,425
2017-10-16T15:10:44.977Z,405
2017-10-16T15:11:55.281Z,390
2017-10-16T15:13:05.260Z,375
2017-10-16T15:14:15.577Z,365
2017-10-16T15:15:25.548Z,350
2017-10-16T15:16:35.526Z,335
2017-10-16T15:17:45.500Z,320
2017-10-16T15:18:55.823Z,305
2017-10-16T15:20:06.129Z,300
2017-10-16T15:21:16.447Z,285
2017-10-16T15:22:26.766Z,275
2017-10-16T15:23:37.075Z,260
2017-10-16T15:24:47.373Z,245
2017-10-16T15:25:57.048Z,235
2017-10-16T15:27:07.345Z,225
2017-10-16T15:28:17.321Z,215
2017-10-16T15:29:27.312Z,200
2017-10-16T15:30:37.630Z,195
2017-10-16T15:31:47.946Z,185
2017-10-16T15:32:57.931Z,175
2017-10-16T15:34:07.925Z,165
2017-10-16T15:35:17.901Z,160
2017-10-16T15:36:28.205Z,150
2017-10-16T15:37:38.513Z,140
2017-10-16T15:38:48.809Z,135
2017-10-16T15:39:59.129Z,125
2017-10-16T15:41:09.438Z,115
2017-10-16T15:42:19.447Z,110
2017-10-16T15:43:29.749Z,105
2017-10-16T15:44:40.048Z,95
2017-10-16T15:45:50.353Z,90
2017-10-16T15:47:00.337Z,80
2017-10-16T15:48:10.654Z,80
2017-10-16T15:49:20.979Z,75
2017-10-16T15:50:31.320Z,70
2017-10-16T15:51:41.626Z,65
2017-10-16T15:52:51.928Z,55
2017-10-16T15:54:02.231Z,50
2017-10-16T15:55:12.225Z,55
2017-10-16T15:56:22.536Z,50
2017-10-16T15:57:32.830Z,45
2017-10-16T15:58:43.129Z,40
2017-10-16T15:59:52.778Z,35
2017-10-16T16:01:03.086Z,35
2017-10-16T16:02:13.063Z,30
2017-10-16T16:03:23.384Z,30
2017-10-16T16:04:33.681Z,25
2017-10-16T16:05:43.653Z,25
2017-10-16T16:06:53.961Z,20
2017-10-16T16:08:03.944Z,20
2017-10-16T16:09:14.289Z,15
2017-10-16T16:10:24.596Z,15
2017-10-16T16:11:34.572Z,15
2017-10-16T16:12:44.868Z,10
2017-10-16T16:13:55.169Z,10
2017-10-16T16:15:05.153Z,10
2017-10-16T16:16:15.468Z,10
2017-10-16T16:17:25.462Z,5
2017-10-16T16:18:35.452Z,5
2017-10-16T16:19:45.770Z,5